KNYG

Details ICAO KNYG (NYG)
Name QUANTICO MCAF
Region United States
Timezone America/New_York (UTC-5.0)
Plans Departing 5
Arriving 4
Stats Elevation 11 ft / 3 m (AMSL)
Location 38.503600° -77.305031°
Runways 1
Magnetic Variation 10.591° W
Sunrise 2017-12-13 12:19:40 UTC / 2017-12-13 07:19:40 Local
Sunset 2017-12-13 21:50:13 UTC / 2017-12-13 16:50:13 Local
Advertisement - Login to hide

Runways

ID Width Length Bearing (true) Bearing (mag) Surface Threshold Offset Overrun Length
02 200 ft / 61 m 4,286 ft / 1,306 m 14.58° 25.17° Asphalt 0 ft / 0 m 0 ft / 0 m
20 200 ft / 61 m 4,286 ft / 1,306 m 194.58° 205.17° Asphalt 0 ft / 0 m 125 ft / 38 m

Map

Weather


0- 5 10 15 20 25 30 35+ Temperature / ° C

Clouds and Precipitation
Forecast for 2017-12-13 18:00 UTC. Updated 16 minutes ago

Ground ~20,000 ft ~40,000 ft Winds

METAR

KNYG 131456Z 30010G17KT 10SM FEW050 FEW100 M02/M15 A2990 RMK AO2 SLP126 T10171150 50005

TAF

TAF KNYG 1315/1415 28014KT 9999 SCT050 530605 QNH2980INS FM132200 20008KT 9999 FEW050 SCT060 BKN150 630657 530605 QNH2960INS T03/1320Z TM03/1304Z

Frequencies

Ground 121.75 MHz GND
Approach 127.05 MHz ARRIVAL
Tower 118.60 MHz TWR
Approach 124.65 MHz POTOMAC APP/DEP
Warning: Do not use this data for real-world aviation or navigation. No guarantee of current accuracy is given.